createdAt,value
2023-04-01T00:01:50.382Z,98950.13
2023-04-01T00:04:17.704Z,98951.09
2023-04-01T00:06:44.810Z,98954.00
2023-04-01T00:09:11.578Z,98956.41
2023-04-01T00:11:39.502Z,98952.69
2023-04-01T00:14:06.998Z,98957.69
2023-04-01T00:16:34.387Z,98962.50
2023-04-01T00:19:01.201Z,98953.28
2023-04-01T00:21:28.269Z,98951.47
2023-04-01T00:23:55.105Z,98953.50
2023-04-01T00:26:22.934Z,98952.19
2023-04-01T00:28:50.400Z,98951.56
2023-04-01T00:31:17.504Z,98954.69
2023-04-01T00:33:44.406Z,98951.81
2023-04-01T00:36:12.903Z,98946.88
2023-04-01T00:38:40.141Z,98946.78
2023-04-01T00:41:07.606Z,98946.78
2023-04-01T00:43:35.082Z,98942.38
2023-04-01T00:46:02.558Z,98944.38
2023-04-01T00:48:34.296Z,98944.50
2023-04-01T00:51:21.290Z,98945.97
2023-04-01T00:53:51.035Z,98941.91
2023-04-01T00:56:23.563Z,98936.97
2023-04-01T00:59:00.363Z,98939.63
2023-04-01T01:01:28.831Z,98933.88
2023-04-01T01:03:55.884Z,98929.00
2023-04-01T01:06:44.182Z,98930.44
2023-04-01T01:09:26.314Z,98935.09
2023-04-01T01:12:19.598Z,98925.28
2023-04-01T01:14:52.084Z,98925.84
2023-04-01T01:17:53.181Z,98928.00
2023-04-01T01:20:44.445Z,98927.03
2023-04-01T01:23:49.866Z,98931.59
2023-04-01T01:26:53.090Z,98929.81
2023-04-01T01:29:44.936Z,98933.88
2023-04-01T01:32:36.917Z,98926.94
2023-04-01T01:35:34.651Z,98924.06
2023-04-01T01:38:06.480Z,98921.66
2023-04-01T01:40:36.324Z,98919.41
2023-04-01T01:43:10.424Z,98928.22
2023-04-01T01:45:41.883Z,98928.22
2023-04-01T01:48:11.054Z,98924.41
2023-04-01T01:50:39.850Z,98923.94
2023-04-01T01:53:08.812Z,98923.31
2023-04-01T01:55:39.754Z,98924.41
2023-04-01T01:58:12.238Z,98918.78
2023-04-01T02:00:42.405Z,98921.28
2023-04-01T02:03:10.406Z,98922.13
2023-04-01T02:05:37.722Z,98922.03
2023-04-01T02:08:13.698Z,98915.31
2023-04-01T02:10:45.750Z,98909.91
2023-04-01T02:13:24.696Z,98905.00
2023-04-01T02:15:58.144Z,98900.91
2023-04-01T02:18:25.575Z,98905.00
2023-04-01T02:20:52.904Z,98911.94
2023-04-01T02:23:20.304Z,98907.84
2023-04-01T02:25:48.669Z,98899.09
2023-04-01T02:28:20.828Z,98902.31
2023-04-01T02:30:50.883Z,98899.91
2023-04-01T02:33:18.930Z,98900.84
2023-04-01T02:35:46.218Z,98892.94
2023-04-01T02:38:13.099Z,98898.13
2023-04-01T02:40:52.689Z,98893.22
2023-04-01T02:43:20.804Z,98893.81
2023-04-01T02:45:47.961Z,98889.03
2023-04-01T02:48:15.215Z,98891.78
2023-04-01T02:50:42.302Z,98887.59
2023-04-01T02:53:09.320Z,98897.94
2023-04-01T02:55:36.568Z,98894.00
2023-04-01T02:58:03.415Z,98898.69
2023-04-01T03:00:30.622Z,98904.31
2023-04-01T03:02:57.867Z,98902.63
2023-04-01T03:05:25.112Z,98896.88
2023-04-01T03:07:52.128Z,98895.84
2023-04-01T03:10:19.202Z,98902.91
2023-04-01T03:12:46.478Z,98897.72
2023-04-01T03:15:15.612Z,98897.97
2023-04-01T03:17:43.869Z,98895.84
2023-04-01T03:20:12.176Z,98888.19
2023-04-01T03:22:40.875Z,98883.75
2023-04-01T03:25:11.144Z,98893.09
2023-04-01T03:27:38.089Z,98896.09
2023-04-01T03:30:06.865Z,98901.97
2023-04-01T03:32:33.727Z,98909.03
2023-04-01T03:35:00.965Z,98919.78
2023-04-01T03:37:27.805Z,98921.91
2023-04-01T03:39:54.898Z,98919.53
2023-04-01T03:42:21.877Z,98930.31
2023-04-01T03:44:48.948Z,98923.59
2023-04-01T03:47:15.765Z,98936.63
2023-04-01T03:49:42.863Z,98927.69
2023-04-01T03:52:11.932Z,98936.88
2023-04-01T03:54:39.404Z,98937.34
2023-04-01T03:57:06.451Z,98939.41
2023-04-01T03:59:33.630Z,98940.00
2023-04-01T04:02:00.861Z,98934.84
2023-04-01T04:04:28.422Z,98936.66
2023-04-01T04:06:57.210Z,98940.84
2023-04-01T04:09:24.607Z,98938.91
2023-04-01T04:11:51.898Z,98938.06
2023-04-01T04:14:19.000Z,98937.09
2023-04-01T04:16:45.904Z,98940.69
2023-04-01T04:19:13.229Z,98936.50
2023-04-01T04:21:41.635Z,98933.75
2023-04-01T04:24:09.328Z,98930.88
2023-04-01T04:26:36.348Z,98939.00
2023-04-01T04:29:03.829Z,98933.97
2023-04-01T04:31:30.747Z,98929.19
2023-04-01T04:34:00.916Z,98930.97
2023-04-01T04:36:28.014Z,98932.66
2023-04-01T04:38:55.091Z,98923.22
2023-04-01T04:41:23.104Z,98928.59
2023-04-01T04:43:56.274Z,98916.38
2023-04-01T04:46:23.768Z,98925.84
2023-04-01T04:48:51.114Z,98915.06
2023-04-01T04:51:20.009Z,98923.66
2023-04-01T04:53:47.389Z,98917.94
2023-04-01T04:56:19.253Z,98924.91
2023-04-01T04:58:46.510Z,98918.69
2023-04-01T05:01:16.326Z,98922.16
2023-04-01T05:03:43.942Z,98922.88
2023-04-01T05:06:12.915Z,98921.69
2023-04-01T05:08:41.428Z,98926.69
2023-04-01T05:11:13.934Z,98919.50
2023-04-01T05:13:42.149Z,98929.09
2023-04-01T05:16:11.158Z,98934.84
2023-04-01T05:18:38.424Z,98933.66
2023-04-01T05:21:07.941Z,98921.34
2023-04-01T05:23:36.310Z,98932.09
2023-04-01T05:26:07.555Z,98928.38
2023-04-01T05:28:34.835Z,98935.69
2023-04-01T05:31:03.176Z,98932.56
2023-04-01T05:33:31.348Z,98936.66
2023-04-01T05:36:06.297Z,98934.94
2023-04-01T05:38:33.404Z,98937.09
2023-04-01T05:41:01.728Z,98935.91
2023-04-01T05:43:28.953Z,98938.84
2023-04-01T05:45:59.091Z,98939.09
2023-04-01T05:48:26.305Z,98945.78
2023-04-01T05:50:53.072Z,98939.78
2023-04-01T05:53:20.314Z,98935.94
2023-04-01T05:55:47.139Z,98933.66
2023-04-01T05:58:14.300Z,98929.19
2023-04-01T06:00:41.175Z,98938.06
2023-04-01T06:03:08.305Z,98934.66
2023-04-01T06:05:42.469Z,98937.88
2023-04-01T06:08:21.137Z,98942.78
2023-04-01T06:11:14.438Z,98939.78
2023-04-01T06:14:01.304Z,98939.13
2023-04-01T06:16:49.638Z,98927.94
2023-04-01T06:19:49.155Z,98930.59
2023-04-01T06:23:01.085Z,98932.06
2023-04-01T06:25:53.923Z,98933.28
2023-04-01T06:28:39.180Z,98929.81
2023-04-01T06:31:21.832Z,98936.84
2023-04-01T06:34:21.333Z,98936.97
2023-04-01T06:37:12.330Z,98943.81
2023-04-01T06:39:39.043Z,98947.75
2023-04-01T06:42:23.708Z,98946.28
2023-04-01T06:45:08.299Z,98941.75
2023-04-01T06:48:04.733Z,98949.50
2023-04-01T06:51:02.845Z,98952.56
2023-04-01T06:53:43.062Z,98956.06
2023-04-01T06:56:13.864Z,98956.16
2023-04-01T06:58:43.153Z,98956.06
2023-04-01T07:01:18.653Z,98954.78
2023-04-01T07:03:54.408Z,98955.97
2023-04-01T07:06:36.787Z,98958.25
2023-04-01T07:09:09.910Z,98949.09
2023-04-01T07:11:39.569Z,98951.09
2023-04-01T07:14:26.873Z,98958.66
2023-04-01T07:17:02.993Z,98952.88
2023-04-01T07:19:58.983Z,98950.09
2023-04-01T07:22:54.804Z,98949.84
2023-04-01T07:25:26.263Z,98950.81
2023-04-01T07:28:06.298Z,98948.13
2023-04-01T07:30:45.793Z,98951.91
2023-04-01T07:33:20.931Z,98947.34
2023-04-01T07:35:57.127Z,98955.28
2023-04-01T07:38:59.915Z,98948.72
2023-04-01T07:41:54.182Z,98959.00
2023-04-01T07:44:20.917Z,98951.41
2023-04-01T07:46:54.616Z,98953.22
2023-04-01T07:49:46.692Z,98953.13
2023-04-01T07:52:42.362Z,98953.22
2023-04-01T07:55:22.646Z,98953.81
2023-04-01T07:58:06.937Z,98955.88
2023-04-01T08:00:53.014Z,98955.75
2023-04-01T08:03:58.732Z,98956.84
2023-04-01T08:06:34.011Z,98952.63
2023-04-01T08:09:19.105Z,98961.84
2023-04-01T08:11:51.578Z,98963.09
2023-04-01T08:14:31.378Z,98960.16
2023-04-01T08:17:20.508Z,98965.75
2023-04-01T08:20:04.636Z,98976.19
2023-04-01T08:22:43.143Z,98960.72
2023-04-01T08:25:18.931Z,98974.81
2023-04-01T08:27:50.056Z,98964.63
2023-04-01T08:30:24.479Z,98971.31
2023-04-01T08:33:20.885Z,98962.00
2023-04-01T08:36:13.111Z,98965.31
2023-04-01T08:38:52.873Z,98964.91
2023-04-01T08:41:37.892Z,98965.75
2023-04-01T08:44:32.916Z,98964.22
2023-04-01T08:47:18.293Z,98955.41
2023-04-01T08:49:57.066Z,98957.09
2023-04-01T08:52:49.981Z,98957.22
2023-04-01T08:55:28.706Z,98963.78
2023-04-01T08:58:17.239Z,98958.59
2023-04-01T09:00:43.957Z,98975.47
2023-04-01T09:03:58.845Z,98967.25
2023-04-01T09:06:28.063Z,98967.16
2023-04-01T09:09:12.254Z,98971.03
2023-04-01T09:12:07.263Z,98958.22
2023-04-01T09:15:05.300Z,98968.59
2023-04-01T09:18:05.982Z,98962.84
2023-04-01T09:20:54.306Z,98961.41
2023-04-01T09:23:39.401Z,98961.06
2023-04-01T09:26:19.548Z,98961.78
2023-04-01T09:29:01.567Z,98951.47
2023-04-01T09:31:40.796Z,98959.53
2023-04-01T09:34:26.125Z,98947.31
2023-04-01T09:37:08.570Z,98958.59
2023-04-01T09:39:46.158Z,98950.38
2023-04-01T09:42:34.795Z,98962.69
2023-04-01T09:45:27.000Z,98964.88
2023-04-01T09:48:20.739Z,98964.91
2023-04-01T09:51:24.968Z,98969.22
2023-04-01T09:54:08.615Z,98975.81
2023-04-01T09:57:26.072Z,98982.63
2023-04-01T10:00:30.568Z,98975.25
2023-04-01T10:03:19.028Z,98972.19
2023-04-01T10:06:14.202Z,98970.66
2023-04-01T10:09:02.148Z,98973.84
2023-04-01T10:11:32.211Z,98962.69
2023-04-01T10:14:35.544Z,98973.00
2023-04-01T10:17:30.077Z,98980.81
2023-04-01T10:20:07.668Z,98976.88
2023-04-01T10:22:56.425Z,98988.88
2023-04-01T10:25:51.733Z,98984.00
2023-04-01T10:29:04.172Z,98973.31
2023-04-01T10:31:33.589Z,98980.13
2023-04-01T10:34:54.813Z,98978.31
2023-04-01T10:37:54.340Z,98982.50
2023-04-01T10:40:32.881Z,98979.28
2023-04-01T10:43:37.329Z,98985.69
2023-04-01T10:46:36.181Z,98981.06
2023-04-01T10:49:12.560Z,98977.31
2023-04-01T10:52:17.048Z,98981.75
2023-04-01T10:55:08.885Z,98970.53
2023-04-01T10:58:08.944Z,98974.47
2023-04-01T11:00:54.156Z,98974.75
2023-04-01T11:04:18.717Z,98976.91
2023-04-01T11:07:00.422Z,98967.09
2023-04-01T11:09:39.233Z,98967.75
2023-04-01T11:12:39.979Z,98965.69
2023-04-01T11:15:12.985Z,98952.44
2023-04-01T11:18:16.726Z,98964.13
2023-04-01T11:21:02.522Z,98958.38
2023-04-01T11:24:04.029Z,98958.63
2023-04-01T11:27:25.933Z,98963.19
2023-04-01T11:30:11.032Z,98953.56
2023-04-01T11:32:54.059Z,98967.59
2023-04-01T11:35:36.067Z,98971.06
2023-04-01T11:38:15.560Z,98976.03
2023-04-01T11:41:10.027Z,98975.34
2023-04-01T11:43:53.040Z,98981.38
2023-04-01T11:46:57.937Z,98982.22
2023-04-01T11:49:54.667Z,98973.00
2023-04-01T11:52:34.835Z,98991.69
2023-04-01T11:55:22.192Z,98992.53
2023-04-01T11:58:21.134Z,98982.47
2023-04-01T12:01:30.042Z,98981.66
2023-04-01T12:04:15.535Z,98974.69
2023-04-01T12:07:01.365Z,98979.28
2023-04-01T12:09:46.298Z,98969.56
2023-04-01T12:13:02.100Z,98972.97
2023-04-01T12:15:55.539Z,98974.94
2023-04-01T12:18:34.745Z,98970.00
2023-04-01T12:21:16.112Z,98971.63
2023-04-01T12:24:43.957Z,98975.84
2023-04-01T12:27:17.959Z,98971.53
2023-04-01T12:30:17.796Z,98982.31
2023-04-01T12:33:06.396Z,98977.13
2023-04-01T12:36:04.556Z,98985.38
2023-04-01T12:38:43.449Z,98979.00
2023-04-01T12:41:21.381Z,98981.59
2023-04-01T12:44:01.846Z,98980.34
2023-04-01T12:46:56.618Z,98973.00
2023-04-01T12:50:00.871Z,98975.13
2023-04-01T12:52:27.839Z,98973.91
2023-04-01T12:55:06.295Z,98968.94
2023-04-01T12:57:46.728Z,98965.81
2023-04-01T13:00:37.027Z,98964.81
2023-04-01T13:03:31.451Z,98961.66
2023-04-01T13:06:21.595Z,98957.00
2023-04-01T13:09:21.649Z,98953.22
2023-04-01T13:12:33.193Z,98950.84
2023-04-01T13:15:24.377Z,98950.13
2023-04-01T13:18:00.108Z,98959.34
2023-04-01T13:20:39.048Z,98943.59
2023-04-01T13:23:17.368Z,98936.22
2023-04-01T13:26:25.882Z,98945.44
2023-04-01T13:29:21.994Z,98942.78
2023-04-01T13:31:51.964Z,98943.97
2023-04-01T13:34:33.414Z,98942.06
2023-04-01T13:37:21.126Z,98939.53
2023-04-01T13:39:59.875Z,98959.22
2023-04-01T13:43:05.006Z,98949.38
2023-04-01T13:45:46.908Z,98942.50
2023-04-01T13:48:26.060Z,98964.28
2023-04-01T13:51:11.219Z,98947.13
2023-04-01T13:53:52.664Z,98951.69
2023-04-01T13:56:43.974Z,98959.22
2023-04-01T13:59:40.488Z,98953.00
2023-04-01T14:02:22.625Z,98947.78
2023-04-01T14:05:01.474Z,98954.91
2023-04-01T14:07:50.573Z,98960.63
2023-04-01T14:10:46.023Z,98953.31
2023-04-01T14:13:38.449Z,98969.91
2023-04-01T14:16:14.571Z,98964.47
2023-04-01T14:19:29.888Z,98961.91
2023-04-01T14:22:41.233Z,98958.53
2023-04-01T14:25:23.200Z,98956.69
2023-04-01T14:27:53.298Z,98964.84
2023-04-01T14:30:47.657Z,98964.78
2023-04-01T14:33:33.446Z,98964.63
2023-04-01T14:36:25.697Z,98950.13
2023-04-01T14:39:19.523Z,98958.47
2023-04-01T14:41:52.787Z,98951.31
2023-04-01T14:44:46.952Z,98950.38
2023-04-01T14:48:01.340Z,98951.00
2023-04-01T14:50:31.460Z,98948.09
2023-04-01T14:53:16.156Z,98955.75
2023-04-01T14:55:51.464Z,98963.38
2023-04-01T14:58:20.651Z,98947.81
2023-04-01T15:01:07.763Z,98944.66
2023-04-01T15:04:03.424Z,98951.66
2023-04-01T15:06:53.520Z,98947.53
2023-04-01T15:10:06.349Z,98959.13
2023-04-01T15:12:53.766Z,98967.84
2023-04-01T15:15:45.107Z,98975.34
2023-04-01T15:18:20.006Z,98973.84
2023-04-01T15:21:19.310Z,98974.72
2023-04-01T15:23:51.260Z,98973.03
2023-04-01T15:27:05.011Z,98959.03
2023-04-01T15:29:53.731Z,98971.94
2023-04-01T15:32:45.156Z,98964.22
2023-04-01T15:35:12.240Z,98960.53
2023-04-01T15:38:03.047Z,98964.03
2023-04-01T15:40:40.011Z,98970.31
2023-04-01T15:43:23.275Z,98968.44
2023-04-01T15:46:20.766Z,98974.44
2023-04-01T15:49:08.668Z,98975.59
2023-04-01T15:52:03.302Z,98985.72
2023-04-01T15:55:07.348Z,98986.63
2023-04-01T15:57:57.613Z,98975.59
2023-04-01T16:00:50.993Z,98980.00
2023-04-01T16:03:33.110Z,98985.38
2023-04-01T16:06:25.647Z,98992.00
2023-04-01T16:09:17.638Z,98976.88
2023-04-01T16:12:18.630Z,98985.13
2023-04-01T16:15:04.430Z,98987.03
2023-04-01T16:17:46.333Z,98991.09
2023-04-01T16:20:16.296Z,98999.53
2023-04-01T16:23:06.207Z,99003.78
2023-04-01T16:25:48.498Z,99004.75
2023-04-01T16:28:27.132Z,99000.03
2023-04-01T16:31:27.098Z,99004.56
2023-04-01T16:34:02.950Z,99008.13
2023-04-01T16:36:55.559Z,99009.56
2023-04-01T16:39:31.229Z,99010.84
2023-04-01T16:42:25.558Z,99018.00
2023-04-01T16:45:07.525Z,99019.75
2023-04-01T16:47:46.303Z,99023.19
2023-04-01T16:50:32.788Z,99031.06
2023-04-01T16:53:13.617Z,99016.44
2023-04-01T16:55:43.323Z,99027.94
2023-04-01T16:58:15.257Z,99024.09
2023-04-01T17:00:50.868Z,99031.41
2023-04-01T17:03:28.329Z,99030.34
2023-04-01T17:06:20.562Z,99045.66
2023-04-01T17:08:56.417Z,99037.13
2023-04-01T17:11:29.957Z,99038.41
2023-04-01T17:14:48.945Z,99036.13
2023-04-01T17:17:33.566Z,99045.06
2023-04-01T17:20:17.165Z,99040.22
2023-04-01T17:22:54.167Z,99046.09
2023-04-01T17:25:27.858Z,99051.28
2023-04-01T17:28:16.900Z,99052.22
2023-04-01T17:31:15.930Z,99056.03
2023-04-01T17:34:01.514Z,99064.13
2023-04-01T17:37:23.870Z,99063.72
2023-04-01T17:40:27.146Z,99071.13
2023-04-01T17:43:09.277Z,99069.72
2023-04-01T17:45:58.298Z,99070.81
2023-04-01T17:48:51.053Z,99067.19
2023-04-01T17:51:40.940Z,99078.34
2023-04-01T17:54:23.311Z,99073.47
2023-04-01T17:57:29.988Z,99073.31
2023-04-01T18:00:52.813Z,99078.34
2023-04-01T18:03:41.488Z,99087.81
2023-04-01T18:06:24.748Z,99096.28
2023-04-01T18:09:00.442Z,99090.00
2023-04-01T18:11:42.739Z,99095.31
2023-04-01T18:14:15.736Z,99104.75
2023-04-01T18:17:16.945Z,99097.63
2023-04-01T18:20:05.438Z,99111.25
2023-04-01T18:22:41.276Z,99112.50
2023-04-01T18:25:30.423Z,99110.28
2023-04-01T18:28:18.683Z,99116.66
2023-04-01T18:30:54.710Z,99120.66
2023-04-01T18:33:38.346Z,99125.63
2023-04-01T18:36:16.728Z,99125.91
2023-04-01T18:39:08.583Z,99131.59
2023-04-01T18:41:49.580Z,99128.53
2023-04-01T18:44:35.211Z,99132.97
2023-04-01T18:47:06.494Z,99134.44
2023-04-01T18:49:53.257Z,99130.25
2023-04-01T18:52:35.182Z,99131.63
2023-04-01T18:55:02.208Z,99139.97
2023-04-01T18:57:51.324Z,99152.59
2023-04-01T19:00:35.804Z,99144.09
2023-04-01T19:03:21.929Z,99142.63
2023-04-01T19:05:52.694Z,99138.19
2023-04-01T19:08:37.043Z,99141.31
2023-04-01T19:11:22.685Z,99144.41
2023-04-01T19:13:49.483Z,99139.13
2023-04-01T19:16:51.431Z,99147.56
2023-04-01T19:19:44.057Z,99144.53
2023-04-01T19:22:37.939Z,99135.75
2023-04-01T19:25:07.929Z,99145.34
2023-04-01T19:27:46.876Z,99147.91
2023-04-01T19:30:16.325Z,99147.47
2023-04-01T19:32:49.200Z,99151.41
2023-04-01T19:35:28.994Z,99153.59
2023-04-01T19:38:25.690Z,99163.81
2023-04-01T19:41:10.705Z,99163.97
2023-04-01T19:43:40.708Z,99165.44
2023-04-01T19:46:32.924Z,99164.13
2023-04-01T19:49:08.864Z,99166.78
2023-04-01T19:51:47.586Z,99172.78
2023-04-01T19:54:50.061Z,99184.44
2023-04-01T19:57:36.981Z,99177.47
2023-04-01T20:00:27.262Z,99176.16
2023-04-01T20:03:04.306Z,99180.06
2023-04-01T20:05:57.382Z,99176.69
2023-04-01T20:08:37.490Z,99181.38
2023-04-01T20:11:13.304Z,99179.94
2023-04-01T20:13:48.975Z,99185.75
2023-04-01T20:16:16.721Z,99179.03
2023-04-01T20:19:00.688Z,99176.06
2023-04-01T20:21:34.503Z,99183.91
2023-04-01T20:24:36.342Z,99176.34
2023-04-01T20:27:31.408Z,99174.06
2023-04-01T20:30:19.154Z,99172.25
2023-04-01T20:32:58.432Z,99174.56
2023-04-01T20:35:31.343Z,99184.66
2023-04-01T20:38:41.773Z,99176.25
2023-04-01T20:41:24.940Z,99185.38
2023-04-01T20:44:15.404Z,99186.59
2023-04-01T20:46:57.060Z,99189.59
2023-04-01T20:49:39.239Z,99191.28
2023-04-01T20:52:14.930Z,99190.78
2023-04-01T20:55:09.193Z,99191.97
2023-04-01T20:58:15.168Z,99198.66
2023-04-01T21:00:51.739Z,99193.34
2023-04-01T21:03:47.693Z,99198.63
2023-04-01T21:06:29.007Z,99203.06
2023-04-01T21:08:55.892Z,99213.09
2023-04-01T21:12:03.200Z,99204.34
2023-04-01T21:14:51.581Z,99211.19
2023-04-01T21:17:40.707Z,99209.00
2023-04-01T21:20:26.093Z,99205.91
2023-04-01T21:23:05.275Z,99206.56
2023-04-01T21:25:37.942Z,99211.63
2023-04-01T21:28:07.965Z,99219.25
2023-04-01T21:31:12.668Z,99218.50
2023-04-01T21:33:53.654Z,99221.00
2023-04-01T21:37:04.966Z,99219.66
2023-04-01T21:39:59.487Z,99224.41
2023-04-01T21:42:58.352Z,99226.50
2023-04-01T21:45:38.892Z,99228.69
2023-04-01T21:48:27.225Z,99231.44
2023-04-01T21:51:13.168Z,99230.69
2023-04-01T21:54:05.410Z,99232.00
2023-04-01T21:57:10.018Z,99230.75
2023-04-01T22:00:05.093Z,99224.34
2023-04-01T22:02:52.965Z,99222.53
2023-04-01T22:05:36.671Z,99233.38
2023-04-01T22:08:09.603Z,99237.31
2023-04-01T22:10:46.974Z,99236.09
2023-04-01T22:13:30.006Z,99228.50
2023-04-01T22:16:10.421Z,99237.75
2023-04-01T22:18:51.709Z,99228.31
2023-04-01T22:21:28.208Z,99235.97
2023-04-01T22:24:04.433Z,99243.88
2023-04-01T22:26:47.314Z,99233.56
2023-04-01T22:29:25.772Z,99241.91
2023-04-01T22:32:01.635Z,99249.81
2023-04-01T22:34:48.777Z,99249.19
2023-04-01T22:37:30.668Z,99256.50
2023-04-01T22:40:09.598Z,99257.19
2023-04-01T22:43:05.247Z,99257.88
2023-04-01T22:45:49.798Z,99262.44
2023-04-01T22:48:26.445Z,99262.78
2023-04-01T22:51:00.548Z,99266.81
2023-04-01T22:53:34.802Z,99276.06
2023-04-01T22:56:08.177Z,99282.84
2023-04-01T22:58:41.253Z,99283.19
2023-04-01T23:01:15.599Z,99279.84
2023-04-01T23:03:45.438Z,99277.28
2023-04-01T23:06:24.598Z,99282.56
2023-04-01T23:09:02.321Z,99281.97
2023-04-01T23:11:36.553Z,99288.38
2023-04-01T23:14:21.286Z,99295.44
2023-04-01T23:16:58.159Z,99287.91
2023-04-01T23:19:37.633Z,99290.75
2023-04-01T23:22:46.443Z,99288.34
2023-04-01T23:25:53.283Z,99296.44
2023-04-01T23:28:46.613Z,99301.94
2023-04-01T23:31:40.584Z,99306.50
2023-04-01T23:34:13.614Z,99314.47
2023-04-01T23:36:47.060Z,99314.72
2023-04-01T23:39:20.390Z,99305.97
2023-04-01T23:41:47.495Z,99314.44
2023-04-01T23:44:16.752Z,99303.91
2023-04-01T23:46:47.408Z,99304.94
2023-04-01T23:49:26.468Z,99299.06
2023-04-01T23:52:18.130Z,99312.22
2023-04-01T23:54:52.359Z,99310.63
2023-04-01T23:57:24.375Z,99313.50
